METAR Data
IDs: Format: Raw Decoded Include TAF

Data at: 2142 UTC 30 Jun 2022

METAR for:KGKT (Gatlinburg-Pigeon Fo, TN, US)
Text:KGKT 302135Z AUTO 19003KT 10SM SCT120 30/21 A3011 RMK A01
Temperature: 30.0°C ( 86°F)
Dewpoint: 21.0°C ( 70°F) [RH = 59%]
Pressure (altimeter):30.11 inches Hg (1019.7 mb)
Winds:from the S (190 degrees) at 3 MPH (3 knots; 1.5 m/s)
Visibility:10 or more sm (16+ km)
Ceiling:at least 12,000 feet AGL
Clouds: scattered clouds at 12000 feet AGL
QC Flag:automated observation with no human augmentation

TAF for:KGKT (Gatlinburg-Pigeon Fo, TN, US)
Text:No data found